createdAt,value
2018-02-08T00:00:39.661Z,1015.27
2018-02-08T00:01:40.078Z,1015.29
2018-02-08T00:02:40.498Z,1015.26
2018-02-08T00:03:40.912Z,1015.27
2018-02-08T00:04:41.328Z,1015.28
2018-02-08T00:05:41.744Z,1015.29
2018-02-08T00:06:42.161Z,1015.32
2018-02-08T00:07:42.576Z,1015.35
2018-02-08T00:08:42.993Z,1015.29
2018-02-08T00:09:43.413Z,1015.30
2018-02-08T00:10:43.827Z,1015.30
2018-02-08T00:11:44.244Z,1015.31
2018-02-08T00:12:44.658Z,1015.34
2018-02-08T00:13:45.071Z,1015.35
2018-02-08T00:14:45.488Z,1015.43
2018-02-08T00:15:45.926Z,1015.39
2018-02-08T00:16:46.321Z,1015.38
2018-02-08T00:17:46.738Z,1015.40
2018-02-08T00:18:47.224Z,1015.44
2018-02-08T00:19:47.569Z,1015.43
2018-02-08T00:20:47.982Z,1015.47
2018-02-08T00:21:48.404Z,1015.50
2018-02-08T00:22:48.815Z,1015.47
2018-02-08T00:23:49.232Z,1015.46
2018-02-08T00:24:49.657Z,1015.48
2018-02-08T00:25:50.061Z,1015.46
2018-02-08T00:26:50.482Z,1015.45
2018-02-08T00:27:50.894Z,1015.43
2018-02-08T00:28:51.311Z,1015.47
2018-02-08T00:29:51.726Z,1015.47
2018-02-08T00:30:52.143Z,1015.42
2018-02-08T00:31:52.559Z,1015.42
2018-02-08T00:32:52.975Z,1015.45
2018-02-08T00:33:53.392Z,1015.41
2018-02-08T00:34:53.809Z,1015.39
2018-02-08T00:35:54.225Z,1015.36
2018-02-08T00:36:54.638Z,1015.38
2018-02-08T00:37:55.054Z,1015.41
2018-02-08T00:38:55.470Z,1015.38
2018-02-08T00:39:55.887Z,1015.40
2018-02-08T00:40:56.302Z,1015.36
2018-02-08T00:41:56.721Z,1015.36
2018-02-08T00:42:57.136Z,1015.40
2018-02-08T00:43:57.551Z,1015.41
2018-02-08T00:44:57.966Z,1015.42
2018-02-08T00:45:58.382Z,1015.41
2018-02-08T00:46:58.806Z,1015.40
2018-02-08T00:47:59.213Z,1015.41
2018-02-08T00:48:59.630Z,1015.44
2018-02-08T00:50:00.054Z,1015.44
2018-02-08T00:51:00.469Z,1015.39
2018-02-08T00:52:00.880Z,1015.44
2018-02-08T00:53:01.295Z,1015.47
2018-02-08T00:54:01.715Z,1015.48
2018-02-08T00:55:02.129Z,1015.48
2018-02-08T00:56:02.545Z,1015.49
2018-02-08T00:57:02.963Z,1015.42
2018-02-08T00:58:03.380Z,1015.49
2018-02-08T00:59:03.793Z,1015.46
2018-02-08T01:00:04.213Z,1015.47
2018-02-08T01:01:04.626Z,1015.49
2018-02-08T01:02:05.046Z,1015.48
2018-02-08T01:03:05.451Z,1015.55
2018-02-08T01:04:05.881Z,1015.55
2018-02-08T01:05:06.288Z,1015.55
2018-02-08T01:06:06.698Z,1015.57
2018-02-08T01:07:07.114Z,1015.57
2018-02-08T01:08:07.531Z,1015.57
2018-02-08T01:09:07.946Z,1015.52
2018-02-08T01:10:08.361Z,1015.54
2018-02-08T01:11:08.782Z,1015.56
2018-02-08T01:12:09.195Z,1015.57
2018-02-08T01:13:09.613Z,1015.58
2018-02-08T01:14:10.026Z,1015.63
2018-02-08T01:15:10.443Z,1015.63
2018-02-08T01:16:10.863Z,1015.66
2018-02-08T01:17:11.281Z,1015.62
2018-02-08T01:18:11.688Z,1015.62
2018-02-08T01:19:12.105Z,1015.65
2018-02-08T01:20:12.536Z,1015.65
2018-02-08T01:21:12.963Z,1015.63
2018-02-08T01:22:13.372Z,1015.58
2018-02-08T01:23:13.767Z,1015.61
2018-02-08T01:24:14.186Z,1015.65
2018-02-08T01:25:14.599Z,1015.61
2018-02-08T01:26:15.016Z,1015.63
2018-02-08T01:27:15.431Z,1015.63
2018-02-08T01:28:15.846Z,1015.64
2018-02-08T01:29:16.264Z,1015.62
2018-02-08T01:30:16.679Z,1015.67
2018-02-08T01:31:17.093Z,1015.61
2018-02-08T01:32:17.509Z,1015.65
2018-02-08T01:33:17.925Z,1015.63
2018-02-08T01:34:18.343Z,1015.66
2018-02-08T01:35:18.761Z,1015.69
2018-02-08T01:36:19.174Z,1015.66
2018-02-08T01:37:19.662Z,1015.64
2018-02-08T01:38:20.001Z,1015.66
2018-02-08T01:39:20.421Z,1015.67
2018-02-08T01:40:20.841Z,1015.68
2018-02-08T01:41:21.251Z,1015.69
2018-02-08T01:42:21.667Z,1015.69
2018-02-08T01:43:22.090Z,1015.69
2018-02-08T01:44:22.500Z,1015.71
2018-02-08T01:45:22.913Z,1015.68
2018-02-08T01:46:23.410Z,1015.68
2018-02-08T01:47:23.736Z,1015.74
2018-02-08T01:48:24.193Z,1015.76
2018-02-08T01:49:24.581Z,1015.73
2018-02-08T01:50:24.996Z,1015.76
2018-02-08T01:51:25.418Z,1015.76
2018-02-08T01:52:25.828Z,1015.77
2018-02-08T01:53:26.243Z,1015.77
2018-02-08T01:54:26.664Z,1015.74
2018-02-08T01:55:27.077Z,1015.73
2018-02-08T01:56:27.525Z,1015.73
2018-02-08T01:57:27.905Z,1015.75
2018-02-08T01:58:28.319Z,1015.68
2018-02-08T01:59:28.737Z,1015.67
2018-02-08T02:00:29.152Z,1015.67
2018-02-08T02:01:29.564Z,1015.65
2018-02-08T02:02:29.980Z,1015.64
2018-02-08T02:03:30.396Z,1015.64
2018-02-08T02:04:30.812Z,1015.63
2018-02-08T02:05:31.274Z,1015.63
2018-02-08T02:06:31.646Z,1015.61
2018-02-08T02:07:32.062Z,1015.60
2018-02-08T02:08:32.479Z,1015.61
2018-02-08T02:09:32.889Z,1015.62
2018-02-08T02:10:33.308Z,1015.59
2018-02-08T02:11:33.724Z,1015.64
2018-02-08T02:12:34.140Z,1015.62
2018-02-08T02:13:34.557Z,1015.64
2018-02-08T02:14:34.975Z,1015.65
2018-02-08T02:15:35.385Z,1015.64
2018-02-08T02:16:35.805Z,1015.65
2018-02-08T02:17:36.219Z,1015.63
2018-02-08T02:18:36.640Z,1015.62
2018-02-08T02:19:37.056Z,1015.60
2018-02-08T02:20:37.469Z,1015.61
2018-02-08T02:21:37.886Z,1015.60
2018-02-08T02:22:38.303Z,1015.63
2018-02-08T02:23:38.712Z,1015.62
2018-02-08T02:24:39.136Z,1015.64
2018-02-08T02:25:39.540Z,1015.64
2018-02-08T02:26:39.957Z,1015.65
2018-02-08T02:27:40.373Z,1015.66
2018-02-08T02:28:40.791Z,1015.66
2018-02-08T02:29:41.257Z,1015.63
2018-02-08T02:30:41.620Z,1015.63
2018-02-08T02:31:42.042Z,1015.69
2018-02-08T02:32:42.450Z,1015.67
2018-02-08T02:33:42.868Z,1015.70
2018-02-08T02:34:43.288Z,1015.70
2018-02-08T02:35:43.700Z,1015.66
2018-02-08T02:36:44.116Z,1015.72
2018-02-08T02:37:44.537Z,1015.67
2018-02-08T02:38:44.942Z,1015.68
2018-02-08T02:39:45.369Z,1015.64
2018-02-08T02:40:45.782Z,1015.68
2018-02-08T02:41:46.192Z,1015.70
2018-02-08T02:42:46.606Z,1015.69
2018-02-08T02:43:47.024Z,1015.67
2018-02-08T02:44:47.438Z,1015.68
2018-02-08T02:45:47.854Z,1015.73
2018-02-08T02:46:48.269Z,1015.73
2018-02-08T02:47:48.683Z,1015.74
2018-02-08T02:48:49.100Z,1015.70
2018-02-08T02:49:49.513Z,1015.74
2018-02-08T02:50:49.930Z,1015.74
2018-02-08T02:51:50.425Z,1015.73
2018-02-08T02:52:50.763Z,1015.72
2018-02-08T02:53:51.178Z,1015.70
2018-02-08T02:54:51.593Z,1015.72
2018-02-08T02:55:52.015Z,1015.67
2018-02-08T02:56:52.424Z,1015.70
2018-02-08T02:57:52.838Z,1015.71
2018-02-08T02:58:53.260Z,1015.68
2018-02-08T02:59:53.676Z,1015.66
2018-02-08T03:00:54.087Z,1015.65
2018-02-08T03:01:54.508Z,1015.65
2018-02-08T03:03:55.352Z,1015.65
2018-02-08T03:04:55.759Z,1015.62
2018-02-08T03:05:56.168Z,1015.63
2018-02-08T03:06:56.586Z,1015.65
2018-02-08T03:07:57.008Z,1015.65
2018-02-08T03:08:57.426Z,1015.66
2018-02-08T03:10:18.980Z,1015.66
2018-02-08T03:10:58.249Z,1015.66
2018-02-08T03:11:58.668Z,1015.65
2018-02-08T03:12:59.080Z,1015.68
2018-02-08T03:13:59.496Z,1015.69
2018-02-08T03:14:59.903Z,1015.69
2018-02-08T03:16:21.478Z,1015.74
2018-02-08T03:17:00.733Z,1015.77
2018-02-08T03:18:01.151Z,1015.75
2018-02-08T03:19:01.565Z,1015.78
2018-02-08T03:20:01.982Z,1015.78
2018-02-08T03:21:02.398Z,1015.76
2018-02-08T03:22:23.972Z,1015.77
2018-02-08T03:23:03.229Z,1015.78
2018-02-08T03:24:03.646Z,1015.77
2018-02-08T03:25:04.059Z,1015.78
2018-02-08T03:26:04.481Z,1015.75
2018-02-08T03:27:04.891Z,1015.74
2018-02-08T03:28:26.456Z,1015.73
2018-02-08T03:29:05.721Z,1015.74
2018-02-08T03:30:06.140Z,1015.75
2018-02-08T03:31:06.555Z,1015.77
2018-02-08T03:32:06.968Z,1015.75
2018-02-08T03:33:07.382Z,1015.71
2018-02-08T03:34:28.959Z,1015.74
2018-02-08T03:35:08.214Z,1015.73
2018-02-08T03:36:08.632Z,1015.72
2018-02-08T03:37:09.049Z,1015.68
2018-02-08T03:38:09.460Z,1015.69
2018-02-08T03:39:09.874Z,1015.68
2018-02-08T03:40:31.448Z,1015.66
2018-02-08T03:41:10.709Z,1015.73
2018-02-08T03:42:11.134Z,1015.67
2018-02-08T03:43:11.544Z,1015.75
2018-02-08T03:44:11.959Z,1015.74
2018-02-08T03:45:12.382Z,1015.69
2018-02-08T03:46:33.935Z,1015.71
2018-02-08T03:47:13.196Z,1015.69
2018-02-08T03:48:13.616Z,1015.68
2018-02-08T03:49:14.059Z,1015.72
2018-02-08T03:50:14.475Z,1015.70
2018-02-08T03:51:14.884Z,1015.71
2018-02-08T03:52:36.431Z,1015.67
2018-02-08T03:53:15.691Z,1015.68
2018-02-08T03:54:16.100Z,1015.68
2018-02-08T03:55:16.516Z,1015.67
2018-02-08T03:56:16.935Z,1015.70
2018-02-08T03:57:17.352Z,1015.69
2018-02-08T03:58:38.938Z,1015.68
2018-02-08T03:59:18.175Z,1015.68
2018-02-08T04:00:18.597Z,1015.69
2018-02-08T04:01:19.010Z,1015.71
2018-02-08T04:02:19.429Z,1015.72
2018-02-08T04:03:19.839Z,1015.76
2018-02-08T04:04:41.412Z,1015.74
2018-02-08T04:05:20.684Z,1015.80
2018-02-08T04:06:21.083Z,1015.72
2018-02-08T04:07:21.501Z,1015.80
2018-02-08T04:08:21.939Z,1015.80
2018-02-08T04:09:22.330Z,1015.76
2018-02-08T04:10:43.901Z,1015.81
2018-02-08T04:11:23.157Z,1015.80
2018-02-08T04:12:23.582Z,1015.83
2018-02-08T04:13:23.987Z,1015.89
2018-02-08T04:14:24.407Z,1015.89
2018-02-08T04:15:24.816Z,1015.87
2018-02-08T04:16:46.397Z,1015.88
2018-02-08T04:17:25.653Z,1015.89
2018-02-08T04:18:26.074Z,1015.88
2018-02-08T04:19:26.518Z,1015.91
2018-02-08T04:20:26.945Z,1015.87
2018-02-08T04:21:27.314Z,1015.90
2018-02-08T04:22:48.911Z,1015.86
2018-02-08T04:23:28.142Z,1015.86
2018-02-08T04:24:28.564Z,1015.85
2018-02-08T04:25:28.983Z,1015.91
2018-02-08T04:26:29.387Z,1015.90
2018-02-08T04:27:29.798Z,1015.89
2018-02-08T04:28:51.382Z,1015.93
2018-02-08T04:29:30.633Z,1015.91
2018-02-08T04:30:31.048Z,1015.90
2018-02-08T04:31:31.466Z,1015.92
2018-02-08T04:32:31.881Z,1015.90
2018-02-08T04:33:32.295Z,1015.91
2018-02-08T04:34:53.868Z,1015.91
2018-02-08T04:35:33.119Z,1015.93
2018-02-08T04:36:33.535Z,1015.93
2018-02-08T04:37:33.955Z,1016.00
2018-02-08T04:38:34.364Z,1016.05
2018-02-08T04:39:34.781Z,1016.03
2018-02-08T04:40:56.352Z,1016.05
2018-02-08T04:41:35.610Z,1016.08
2018-02-08T04:42:36.028Z,1016.05
2018-02-08T04:43:36.531Z,1016.05
2018-02-08T04:44:36.860Z,1015.99
2018-02-08T04:45:37.270Z,1016.04
2018-02-08T04:46:58.849Z,1016.05
2018-02-08T04:47:38.104Z,1016.06
2018-02-08T04:48:38.519Z,1016.02
2018-02-08T04:49:38.940Z,1016.03
2018-02-08T04:50:39.350Z,1016.04
2018-02-08T04:51:39.769Z,1016.08
2018-02-08T04:53:01.328Z,1016.08
2018-02-08T04:53:40.606Z,1016.12
2018-02-08T04:54:41.018Z,1016.08
2018-02-08T04:55:41.433Z,1016.11
2018-02-08T04:56:41.837Z,1016.14
2018-02-08T04:57:42.267Z,1016.13
2018-02-08T04:59:03.824Z,1016.13
2018-02-08T04:59:43.080Z,1016.17
2018-02-08T05:00:43.498Z,1016.21
2018-02-08T05:01:43.913Z,1016.18
2018-02-08T05:02:44.331Z,1016.17
2018-02-08T05:03:44.815Z,1016.15
2018-02-08T05:05:06.336Z,1016.17
2018-02-08T05:05:45.601Z,1016.23
2018-02-08T05:06:45.990Z,1016.26
2018-02-08T05:07:46.417Z,1016.27
2018-02-08T05:08:46.821Z,1016.23
2018-02-08T05:09:47.243Z,1016.28
2018-02-08T05:11:08.815Z,1016.26
2018-02-08T05:11:48.064Z,1016.26
2018-02-08T05:12:48.483Z,1016.29
2018-02-08T05:13:48.897Z,1016.28
2018-02-08T05:14:49.316Z,1016.29
2018-02-08T05:15:49.731Z,1016.28
2018-02-08T05:17:11.361Z,1016.28
2018-02-08T05:17:50.557Z,1016.27
2018-02-08T05:18:50.968Z,1016.31
2018-02-08T05:19:51.388Z,1016.32
2018-02-08T05:20:51.821Z,1016.30
2018-02-08T05:21:52.218Z,1016.28
2018-02-08T05:23:13.811Z,1016.32
2018-02-08T05:23:53.054Z,1016.30
2018-02-08T05:24:53.475Z,1016.32
2018-02-08T05:25:53.906Z,1016.34
2018-02-08T05:26:54.295Z,1016.35
2018-02-08T05:27:54.712Z,1016.34
2018-02-08T05:29:16.279Z,1016.35
2018-02-08T05:29:55.549Z,1016.38
2018-02-08T05:30:55.951Z,1016.40
2018-02-08T05:31:56.366Z,1016.39
2018-02-08T05:32:56.830Z,1016.43
2018-02-08T05:33:57.202Z,1016.38
2018-02-08T05:35:18.769Z,1016.43
2018-02-08T05:35:58.032Z,1016.42
2018-02-08T05:36:58.447Z,1016.41
2018-02-08T05:37:58.864Z,1016.45
2018-02-08T05:38:59.273Z,1016.46
2018-02-08T05:39:59.691Z,1016.43
2018-02-08T05:41:21.263Z,1016.45
2018-02-08T05:42:00.537Z,1016.41
2018-02-08T05:43:00.931Z,1016.47
2018-02-08T05:44:01.353Z,1016.41
2018-02-08T05:45:01.766Z,1016.42
2018-02-08T05:46:02.180Z,1016.46
2018-02-08T05:47:23.742Z,1016.52
2018-02-08T05:48:03.008Z,1016.53
2018-02-08T05:49:03.427Z,1016.51
2018-02-08T05:50:03.845Z,1016.51
2018-02-08T05:51:04.259Z,1016.52
2018-02-08T05:52:04.664Z,1016.56
2018-02-08T05:53:26.232Z,1016.55
2018-02-08T05:54:05.494Z,1016.59
2018-02-08T05:55:05.912Z,1016.59
2018-02-08T05:56:06.328Z,1016.58
2018-02-08T05:57:06.740Z,1016.60
2018-02-08T05:58:07.156Z,1016.60
2018-02-08T05:59:28.727Z,1016.61
2018-02-08T06:00:07.983Z,1016.60
2018-02-08T06:01:08.401Z,1016.59
2018-02-08T06:02:08.816Z,1016.62
2018-02-08T06:03:09.230Z,1016.62
2018-02-08T06:04:09.645Z,1016.58
2018-02-08T06:05:31.219Z,1016.65
2018-02-08T06:06:10.481Z,1016.65
2018-02-08T06:07:10.888Z,1016.65
2018-02-08T06:08:11.312Z,1016.62
2018-02-08T06:09:11.734Z,1016.63
2018-02-08T06:10:12.141Z,1016.65
2018-02-08T06:11:33.722Z,1016.65
2018-02-08T06:12:12.971Z,1016.61
2018-02-08T06:13:13.380Z,1016.66
2018-02-08T06:14:13.791Z,1016.63
2018-02-08T06:15:14.208Z,1016.59
2018-02-08T06:16:14.626Z,1016.65
2018-02-08T06:17:36.198Z,1016.69
2018-02-08T06:18:15.475Z,1016.69
2018-02-08T06:19:15.869Z,1016.67
2018-02-08T06:20:16.297Z,1016.68
2018-02-08T06:21:16.731Z,1016.71
2018-02-08T06:22:17.111Z,1016.72
2018-02-08T06:23:38.685Z,1016.71
2018-02-08T06:24:17.958Z,1016.69
2018-02-08T06:25:18.360Z,1016.74
2018-02-08T06:26:18.772Z,1016.72
2018-02-08T06:27:19.220Z,1016.80
2018-02-08T06:28:19.609Z,1016.78
2018-02-08T06:29:41.170Z,1016.83
2018-02-08T06:30:20.437Z,1016.82
2018-02-08T06:31:20.845Z,1016.82
2018-02-08T06:32:21.263Z,1016.77
2018-02-08T06:33:21.688Z,1016.81
2018-02-08T06:34:22.093Z,1016.81
2018-02-08T06:35:43.656Z,1016.83
2018-02-08T06:36:22.927Z,1016.85
2018-02-08T06:37:23.330Z,1016.85
2018-02-08T06:38:23.755Z,1016.85
2018-02-08T06:39:24.242Z,1016.83
2018-02-08T06:40:24.609Z,1016.83
2018-02-08T06:41:46.179Z,1016.86
2018-02-08T06:42:25.422Z,1016.84
2018-02-08T06:43:25.824Z,1016.85
2018-02-08T06:44:26.240Z,1016.85
2018-02-08T06:45:26.657Z,1016.87
2018-02-08T06:46:27.091Z,1016.87
2018-02-08T06:47:48.635Z,1016.87
2018-02-08T06:48:27.898Z,1016.90
2018-02-08T06:49:28.318Z,1016.94
2018-02-08T06:50:28.726Z,1016.97
2018-02-08T06:51:29.142Z,1017.00
2018-02-08T06:52:29.564Z,1017.00
2018-02-08T06:53:51.128Z,1017.03
2018-02-08T06:54:30.388Z,1017.01
2018-02-08T06:55:30.807Z,1017.05
2018-02-08T06:56:31.223Z,1017.06
2018-02-08T06:57:31.630Z,1017.04
2018-02-08T06:58:32.047Z,1017.02
2018-02-08T06:59:53.612Z,1017.02
2018-02-08T07:00:32.877Z,1017.00
2018-02-08T07:01:33.297Z,1017.01
2018-02-08T07:02:33.711Z,1017.02
2018-02-08T07:03:34.149Z,1017.03
2018-02-08T07:04:34.540Z,1017.02
2018-02-08T07:05:56.111Z,1017.04
2018-02-08T07:06:35.371Z,1017.04
2018-02-08T07:07:35.787Z,1017.07
2018-02-08T07:08:36.201Z,1017.07
2018-02-08T07:09:36.620Z,1017.08
2018-02-08T07:10:37.036Z,1017.04
2018-02-08T07:11:58.597Z,1017.04
2018-02-08T07:12:37.859Z,1017.06
2018-02-08T07:13:38.286Z,1017.04
2018-02-08T07:14:38.683Z,1017.04
2018-02-08T07:15:39.807Z,1017.06
2018-02-08T07:16:39.514Z,1017.07
2018-02-08T07:18:01.085Z,1017.05
2018-02-08T07:18:40.349Z,1017.04
2018-02-08T07:19:40.763Z,1017.07
2018-02-08T07:20:41.176Z,1017.11
2018-02-08T07:21:41.594Z,1017.10
2018-02-08T07:22:42.013Z,1017.09
2018-02-08T07:24:03.574Z,1017.04
2018-02-08T07:24:42.837Z,1017.10
2018-02-08T07:25:43.253Z,1017.05
2018-02-08T07:26:43.664Z,1017.09
2018-02-08T07:27:44.087Z,1017.09
2018-02-08T07:28:44.524Z,1017.13
2018-02-08T07:30:06.071Z,1017.13
2018-02-08T07:30:45.325Z,1017.15
2018-02-08T07:31:45.751Z,1017.14
2018-02-08T07:32:46.157Z,1017.15
2018-02-08T07:33:46.577Z,1017.12
2018-02-08T07:34:46.994Z,1017.12
2018-02-08T07:36:08.570Z,1017.14
2018-02-08T07:36:47.830Z,1017.16
2018-02-08T07:37:48.242Z,1017.16
2018-02-08T07:38:48.658Z,1017.14
2018-02-08T07:39:49.071Z,1017.15
2018-02-08T07:40:49.481Z,1017.13
2018-02-08T07:42:11.053Z,1017.12
2018-02-08T07:42:50.314Z,1017.12
2018-02-08T07:43:50.726Z,1017.13
2018-02-08T07:44:51.146Z,1017.15
2018-02-08T07:45:51.562Z,1017.10
2018-02-08T07:46:51.979Z,1017.09
2018-02-08T07:48:13.541Z,1017.12
2018-02-08T07:48:52.808Z,1017.12
2018-02-08T07:49:53.224Z,1017.15
2018-02-08T07:50:53.640Z,1017.14
2018-02-08T07:51:54.047Z,1017.16
2018-02-08T07:52:54.468Z,1017.18
2018-02-08T07:54:16.038Z,1017.18
2018-02-08T07:54:55.303Z,1017.22
2018-02-08T07:55:55.712Z,1017.25
2018-02-08T07:56:56.131Z,1017.24
2018-02-08T07:57:56.550Z,1017.29
2018-02-08T07:58:56.965Z,1017.28
2018-02-08T08:00:18.535Z,1017.28
2018-02-08T08:00:57.827Z,1017.30
2018-02-08T08:01:58.217Z,1017.29
2018-02-08T08:02:58.621Z,1017.31
2018-02-08T08:03:59.040Z,1017.32
2018-02-08T08:04:59.457Z,1017.32
2018-02-08T08:06:21.033Z,1017.31
2018-02-08T08:07:00.288Z,1017.32
2018-02-08T08:08:00.707Z,1017.27
2018-02-08T08:09:01.124Z,1017.25
2018-02-08T08:10:01.539Z,1017.29
2018-02-08T08:11:01.952Z,1017.28
2018-02-08T08:12:23.576Z,1017.28
2018-02-08T08:13:02.792Z,1017.30
2018-02-08T08:14:03.203Z,1017.33
2018-02-08T08:15:03.617Z,1017.34
2018-02-08T08:16:04.029Z,1017.38
2018-02-08T08:17:04.445Z,1017.39
2018-02-08T08:18:26.028Z,1017.40
2018-02-08T08:19:05.285Z,1017.41
2018-02-08T08:20:05.693Z,1017.43
2018-02-08T08:21:06.124Z,1017.40
2018-02-08T08:22:06.541Z,1017.41
2018-02-08T08:23:06.949Z,1017.40
2018-02-08T08:24:28.558Z,1017.42
2018-02-08T08:25:07.788Z,1017.41
2018-02-08T08:26:08.216Z,1017.43
2018-02-08T08:27:08.635Z,1017.44
2018-02-08T08:28:09.044Z,1017.45
2018-02-08T08:29:09.444Z,1017.41
2018-02-08T08:30:31.040Z,1017.43
2018-02-08T08:31:10.290Z,1017.43
2018-02-08T08:32:10.715Z,1017.41
2018-02-08T08:33:11.112Z,1017.44
2018-02-08T08:34:11.552Z,1017.45
2018-02-08T08:35:11.949Z,1017.46
2018-02-08T08:36:33.515Z,1017.48
2018-02-08T08:37:12.774Z,1017.46
2018-02-08T08:38:13.201Z,1017.46
2018-02-08T08:39:13.623Z,1017.50
2018-02-08T08:40:14.060Z,1017.51
2018-02-08T08:41:14.441Z,1017.52
2018-02-08T08:42:36.012Z,1017.54
2018-02-08T08:43:15.273Z,1017.53
2018-02-08T08:44:15.703Z,1017.54
2018-02-08T08:45:16.112Z,1017.55
2018-02-08T08:46:16.531Z,1017.53
2018-02-08T08:47:16.976Z,1017.56
2018-02-08T08:48:38.524Z,1017.59
2018-02-08T08:49:17.788Z,1017.55
2018-02-08T08:50:18.196Z,1017.57
2018-02-08T08:51:18.612Z,1017.61
2018-02-08T08:52:19.030Z,1017.60
2018-02-08T08:53:19.469Z,1017.61
2018-02-08T08:54:41.035Z,1017.63
2018-02-08T08:55:20.292Z,1017.58
2018-02-08T08:56:20.695Z,1017.62
2018-02-08T08:57:21.130Z,1017.63
2018-02-08T08:58:21.531Z,1017.60
2018-02-08T08:59:21.952Z,1017.65
2018-02-08T09:00:43.518Z,1017.66
2018-02-08T09:01:22.789Z,1017.63
2018-02-08T09:02:23.209Z,1017.64
2018-02-08T09:03:23.612Z,1017.67
2018-02-08T09:04:24.071Z,1017.66
2018-02-08T09:05:24.452Z,1017.68
2018-02-08T09:06:46.023Z,1017.71
2018-02-08T09:07:25.283Z,1017.69
2018-02-08T09:08:25.707Z,1017.69
2018-02-08T09:09:26.127Z,1017.67
2018-02-08T09:10:26.536Z,1017.70
2018-02-08T09:11:26.953Z,1017.71
2018-02-08T09:12:48.530Z,1017.71
2018-02-08T09:13:27.785Z,1017.70
2018-02-08T09:14:28.211Z,1017.69
2018-02-08T09:15:28.638Z,1017.68
2018-02-08T09:16:29.048Z,1017.73
2018-02-08T09:17:29.495Z,1017.74
2018-02-08T09:18:51.036Z,1017.72
2018-02-08T09:19:30.294Z,1017.65
2018-02-08T09:20:30.709Z,1017.69
2018-02-08T09:21:31.127Z,1017.72
2018-02-08T09:22:31.551Z,1017.67
2018-02-08T09:23:31.969Z,1017.67
2018-02-08T09:24:53.551Z,1017.68
2018-02-08T09:25:32.799Z,1017.71
2018-02-08T09:26:33.221Z,1017.66
2018-02-08T09:27:33.654Z,1017.68
2018-02-08T09:28:34.084Z,1017.70
2018-02-08T09:29:34.505Z,1017.70
2018-02-08T09:30:56.070Z,1017.66
2018-02-08T09:31:35.323Z,1017.64
2018-02-08T09:32:35.758Z,1017.72
2018-02-08T09:33:36.172Z,1017.68
2018-02-08T09:34:36.590Z,1017.72
2018-02-08T09:35:37.027Z,1017.75
2018-02-08T09:36:58.588Z,1017.76
2018-02-08T09:37:37.868Z,1017.74
2018-02-08T09:38:38.283Z,1017.72
2018-02-08T09:39:38.710Z,1017.73
2018-02-08T09:40:39.132Z,1017.73
2018-02-08T09:41:39.553Z,1017.76
2018-02-08T09:43:01.132Z,1017.72
2018-02-08T09:43:40.410Z,1017.73
2018-02-08T09:44:40.838Z,1017.73
2018-02-08T09:45:41.271Z,1017.74
2018-02-08T09:46:41.672Z,1017.67
2018-02-08T09:47:42.102Z,1017.75
2018-02-08T09:49:03.694Z,1017.75
2018-02-08T09:49:42.964Z,1017.75
2018-02-08T09:50:43.389Z,1017.74
2018-02-08T09:51:43.809Z,1017.73
2018-02-08T09:52:44.229Z,1017.73
2018-02-08T09:53:44.658Z,1017.71
2018-02-08T09:55:06.253Z,1017.71
2018-02-08T09:55:45.650Z,1017.73
2018-02-08T09:56:45.931Z,1017.76
2018-02-08T09:57:46.373Z,1017.77
2018-02-08T09:58:46.819Z,1017.76
2018-02-08T09:59:47.223Z,1017.76
2018-02-08T10:01:08.816Z,1017.73
2018-02-08T10:01:48.077Z,1017.78
2018-02-08T10:02:48.516Z,1017.75
2018-02-08T10:03:48.942Z,1017.78
2018-02-08T10:04:49.385Z,1017.76
2018-02-08T10:05:49.810Z,1017.77
2018-02-08T10:07:11.393Z,1017.78
2018-02-08T10:07:50.659Z,1017.75
2018-02-08T10:08:51.094Z,1017.73
2018-02-08T10:09:51.527Z,1017.69
2018-02-08T10:10:51.961Z,1017.70
2018-02-08T10:11:52.385Z,1017.70
2018-02-08T10:13:13.981Z,1017.69
2018-02-08T10:13:53.260Z,1017.77
2018-02-08T10:14:53.673Z,1017.71
2018-02-08T10:15:54.108Z,1017.73
2018-02-08T10:16:54.533Z,1017.75
2018-02-08T10:17:54.968Z,1017.73
2018-02-08T10:19:16.570Z,1017.74
2018-02-08T10:19:55.836Z,1017.75
2018-02-08T10:20:56.296Z,1017.78
2018-02-08T10:21:56.700Z,1017.80
2018-02-08T10:22:57.139Z,1017.77
2018-02-08T10:23:57.559Z,1017.74
2018-02-08T10:25:19.150Z,1017.76
2018-02-08T10:25:58.430Z,1017.76
2018-02-08T10:26:58.861Z,1017.71
2018-02-08T10:27:59.285Z,1017.71
2018-02-08T10:28:59.722Z,1017.69
2018-02-08T10:30:00.156Z,1017.71
2018-02-08T10:31:21.752Z,1017.68
2018-02-08T10:32:01.032Z,1017.66
2018-02-08T10:33:01.463Z,1017.65
2018-02-08T10:34:01.896Z,1017.64
2018-02-08T10:35:02.322Z,1017.62
2018-02-08T10:36:02.770Z,1017.63
2018-02-08T10:37:24.352Z,1017.63
2018-02-08T10:38:03.630Z,1017.66
2018-02-08T10:39:04.065Z,1017.70
2018-02-08T10:40:04.519Z,1017.66
2018-02-08T10:41:04.929Z,1017.68
2018-02-08T10:42:05.373Z,1017.66
2018-02-08T10:43:26.962Z,1017.66
2018-02-08T10:44:06.235Z,1017.68
2018-02-08T10:45:06.668Z,1017.64
2018-02-08T10:46:07.102Z,1017.66
2018-02-08T10:47:07.540Z,1017.62
2018-02-08T10:48:07.972Z,1017.66
2018-02-08T10:49:29.567Z,1017.63
2018-02-08T10:50:08.834Z,1017.66
2018-02-08T10:51:09.272Z,1017.63
2018-02-08T10:52:09.710Z,1017.61
2018-02-08T10:53:10.152Z,1017.61
2018-02-08T10:54:10.590Z,1017.59
2018-02-08T10:55:32.169Z,1017.60
2018-02-08T10:56:11.451Z,1017.61
2018-02-08T10:57:11.880Z,1017.63
2018-02-08T10:58:12.325Z,1017.63
2018-02-08T10:59:12.754Z,1017.59
2018-02-08T11:00:13.187Z,1017.57
2018-02-08T11:01:34.787Z,1017.58
2018-02-08T11:02:14.054Z,1017.59
2018-02-08T11:03:14.502Z,1017.57
2018-02-08T11:04:14.970Z,1017.58
2018-02-08T11:05:15.425Z,1017.58
2018-02-08T11:06:15.798Z,1017.57
2018-02-08T11:07:37.397Z,1017.60
2018-02-08T11:08:16.668Z,1017.62
2018-02-08T11:09:17.105Z,1017.62
2018-02-08T11:10:17.543Z,1017.63
2018-02-08T11:11:17.983Z,1017.62
2018-02-08T11:12:18.425Z,1017.61
2018-02-08T11:13:40.010Z,1017.56
2018-02-08T11:14:19.289Z,1017.60
2018-02-08T11:15:19.726Z,1017.57
2018-02-08T11:16:20.173Z,1017.59
2018-02-08T11:17:20.592Z,1017.60
2018-02-08T11:18:21.041Z,1017.61
2018-02-08T11:19:42.647Z,1017.63
2018-02-08T11:20:21.908Z,1017.68
2018-02-08T11:21:22.336Z,1017.65
2018-02-08T11:22:22.775Z,1017.62
2018-02-08T11:23:23.210Z,1017.66
2018-02-08T11:24:23.646Z,1017.63
2018-02-08T11:25:45.259Z,1017.61
2018-02-08T11:26:24.517Z,1017.59
2018-02-08T11:27:24.960Z,1017.61
2018-02-08T11:28:25.391Z,1017.60
2018-02-08T11:29:25.823Z,1017.59
2018-02-08T11:30:26.262Z,1017.56
2018-02-08T11:31:47.899Z,1017.56
2018-02-08T11:32:27.133Z,1017.58
2018-02-08T11:33:27.578Z,1017.63
2018-02-08T11:34:28.258Z,1017.62
2018-02-08T11:35:28.432Z,1017.60
2018-02-08T11:36:28.875Z,1017.57
2018-02-08T11:37:50.485Z,1017.57
2018-02-08T11:38:29.744Z,1017.56
2018-02-08T11:39:30.193Z,1017.54
2018-02-08T11:40:30.617Z,1017.56
2018-02-08T11:41:31.056Z,1017.55
2018-02-08T11:42:31.488Z,1017.57
2018-02-08T11:43:53.092Z,1017.59
2018-02-08T11:44:32.360Z,1017.58
2018-02-08T11:45:32.788Z,1017.59
2018-02-08T11:46:33.224Z,1017.56
2018-02-08T11:47:33.662Z,1017.57
2018-02-08T11:48:34.094Z,1017.57
2018-02-08T11:49:55.695Z,1017.57
2018-02-08T11:50:34.966Z,1017.54
2018-02-08T11:51:35.406Z,1017.55
2018-02-08T11:52:35.837Z,1017.58
2018-02-08T11:53:36.275Z,1017.59
2018-02-08T11:54:36.705Z,1017.59
2018-02-08T11:55:58.297Z,1017.59
2018-02-08T11:56:37.568Z,1017.62
2018-02-08T11:57:38.021Z,1017.61
2018-02-08T11:58:38.440Z,1017.63
2018-02-08T11:59:38.874Z,1017.59
2018-02-08T12:00:39.306Z,1017.59
2018-02-08T12:02:00.909Z,1017.55
2018-02-08T12:02:40.168Z,1017.58
2018-02-08T12:03:40.602Z,1017.58
2018-02-08T12:04:41.028Z,1017.61
2018-02-08T12:05:41.468Z,1017.60
2018-02-08T12:06:41.910Z,1017.58
2018-02-08T12:08:03.486Z,1017.58
2018-02-08T12:08:42.748Z,1017.59
2018-02-08T12:09:43.178Z,1017.56
2018-02-08T12:10:43.607Z,1017.55
2018-02-08T12:11:44.033Z,1017.51